sensor_id;sensor_type;location;lat;lon;timestamp;pressure;altitude;pressure_sealevel;temperature;humidity
40502;BME280;29631;49.168;9.848;2023-03-25T00:01:07;95951.66;;;13.77;89.42
40502;BME280;29631;49.168;9.848;2023-03-25T00:03:35;95961.47;;;13.77;89.22
40502;BME280;29631;49.168;9.848;2023-03-25T00:06:07;95947.34;;;13.71;89.50
40502;BME280;29631;49.168;9.848;2023-03-25T00:08:33;95956.19;;;13.77;89.87
40502;BME280;29631;49.168;9.848;2023-03-25T00:11:00;95919.00;;;13.55;89.18
40502;BME280;29631;49.168;9.848;2023-03-25T00:13:29;95947.19;;;13.61;89.06
40502;BME280;29631;49.168;9.848;2023-03-25T00:15:57;95944.28;;;13.63;89.16
40502;BME280;29631;49.168;9.848;2023-03-25T00:18:26;95934.88;;;13.55;89.39
40502;BME280;29631;49.168;9.848;2023-03-25T00:20:54;95952.78;;;13.65;88.77
40502;BME280;29631;49.168;9.848;2023-03-25T00:23:22;95950.63;;;13.62;88.68
40502;BME280;29631;49.168;9.848;2023-03-25T00:25:48;95944.09;;;13.53;88.88
40502;BME280;29631;49.168;9.848;2023-03-25T00:28:17;95961.94;;;13.57;88.97
40502;BME280;29631;49.168;9.848;2023-03-25T00:30:44;95948.75;;;13.46;88.25
40502;BME280;29631;49.168;9.848;2023-03-25T00:33:10;95953.59;;;13.49;88.81
40502;BME280;29631;49.168;9.848;2023-03-25T00:35:39;95882.72;;;13.06;88.51
40502;BME280;29631;49.168;9.848;2023-03-25T00:38:12;95961.28;;;13.50;88.40
40502;BME280;29631;49.168;9.848;2023-03-25T00:40:39;95950.69;;;13.50;88.99
40502;BME280;29631;49.168;9.848;2023-03-25T00:43:05;95946.44;;;13.49;88.74
40502;BME280;29631;49.168;9.848;2023-03-25T00:45:32;95882.78;;;12.95;88.81
40502;BME280;29631;49.168;9.848;2023-03-25T00:47:59;95930.16;;;13.41;88.62
40502;BME280;29631;49.168;9.848;2023-03-25T00:50:25;95952.94;;;13.58;88.70
40502;BME280;29631;49.168;9.848;2023-03-25T00:52:51;95951.84;;;13.54;88.25
40502;BME280;29631;49.168;9.848;2023-03-25T00:55:20;95954.38;;;13.49;87.97
40502;BME280;29631;49.168;9.848;2023-03-25T00:57:47;95965.78;;;13.50;88.50
40502;BME280;29631;49.168;9.848;2023-03-25T01:00:16;95950.47;;;13.35;87.78
40502;BME280;29631;49.168;9.848;2023-03-25T01:02:43;95945.53;;;13.27;88.68
40502;BME280;29631;49.168;9.848;2023-03-25T01:05:10;95957.75;;;13.28;88.27
40502;BME280;29631;49.168;9.848;2023-03-25T01:07:38;95944.06;;;13.20;88.27
40502;BME280;29631;49.168;9.848;2023-03-25T01:10:05;95946.31;;;13.11;88.15
40502;BME280;29631;49.168;9.848;2023-03-25T01:12:31;95923.13;;;13.02;88.52
40502;BME280;29631;49.168;9.848;2023-03-25T01:14:57;95901.00;;;12.80;88.21
40502;BME280;29631;49.168;9.848;2023-03-25T01:17:23;95948.56;;;13.19;88.79
40502;BME280;29631;49.168;9.848;2023-03-25T01:19:49;95908.75;;;12.98;88.26
40502;BME280;29631;49.168;9.848;2023-03-25T01:22:15;95909.56;;;12.99;88.07
40502;BME280;29631;49.168;9.848;2023-03-25T01:24:40;95920.97;;;12.99;88.23
40502;BME280;29631;49.168;9.848;2023-03-25T01:27:06;95940.56;;;13.14;88.31
40502;BME280;29631;49.168;9.848;2023-03-25T01:29:32;95942.03;;;13.10;88.76
40502;BME280;29631;49.168;9.848;2023-03-25T01:31:58;95914.19;;;12.92;88.71
40502;BME280;29631;49.168;9.848;2023-03-25T01:34:24;95935.06;;;13.04;87.47
40502;BME280;29631;49.168;9.848;2023-03-25T01:36:50;95939.91;;;13.07;88.27
40502;BME280;29631;49.168;9.848;2023-03-25T01:39:19;95864.72;;;12.64;88.37
40502;BME280;29631;49.168;9.848;2023-03-25T01:41:48;95939.72;;;13.14;88.18
40502;BME280;29631;49.168;9.848;2023-03-25T01:46:42;95927.25;;;13.09;87.63
40502;BME280;29631;49.168;9.848;2023-03-25T01:49:15;95921.00;;;13.15;88.72
40502;BME280;29631;49.168;9.848;2023-03-25T01:51:43;95918.88;;;13.17;87.94
40502;BME280;29631;49.168;9.848;2023-03-25T01:54:12;95887.94;;;13.02;88.44
40502;BME280;29631;49.168;9.848;2023-03-25T01:56:43;95899.81;;;13.15;87.70
40502;BME280;29631;49.168;9.848;2023-03-25T01:59:11;95848.84;;;12.64;87.87
40502;BME280;29631;49.168;9.848;2023-03-25T02:01:37;95910.88;;;13.12;88.09
40502;BME280;29631;49.168;9.848;2023-03-25T02:04:03;95904.91;;;13.05;88.05
40502;BME280;29631;49.168;9.848;2023-03-25T02:06:48;95929.63;;;13.11;88.56
40502;BME280;29631;49.168;9.848;2023-03-25T02:09:22;95900.19;;;13.07;87.65
40502;BME280;29631;49.168;9.848;2023-03-25T02:11:49;95894.50;;;12.99;88.17
40502;BME280;29631;49.168;9.848;2023-03-25T02:14:23;95827.34;;;12.44;88.41
40502;BME280;29631;49.168;9.848;2023-03-25T02:23:22;95901.88;;;12.97;88.60
40502;BME280;29631;49.168;9.848;2023-03-25T02:28:57;95898.19;;;12.98;88.37
40502;BME280;29631;49.168;9.848;2023-03-25T02:40:21;95871.00;;;13.03;88.71
40502;BME280;29631;49.168;9.848;2023-03-25T02:43:46;95870.44;;;13.01;88.01
40502;BME280;29631;49.168;9.848;2023-03-25T02:45:51;95883.09;;;12.99;88.65
40502;BME280;29631;49.168;9.848;2023-03-25T02:48:25;95877.25;;;12.97;87.77
40502;BME280;29631;49.168;9.848;2023-03-25T02:51:00;95869.72;;;12.89;88.64
40502;BME280;29631;49.168;9.848;2023-03-25T02:53:33;95879.25;;;12.90;88.15
40502;BME280;29631;49.168;9.848;2023-03-25T02:56:05;95869.59;;;12.84;88.75
40502;BME280;29631;49.168;9.848;2023-03-25T02:58:33;95884.97;;;12.87;87.69
40502;BME280;29631;49.168;9.848;2023-03-25T03:01:00;95917.31;;;12.89;88.97
40502;BME280;29631;49.168;9.848;2023-03-25T03:03:27;95919.59;;;12.85;87.88
40502;BME280;29631;49.168;9.848;2023-03-25T03:05:58;95937.50;;;12.67;88.80
40502;BME280;29631;49.168;9.848;2023-03-25T03:08:52;95957.25;;;12.76;88.61
40502;BME280;29631;49.168;9.848;2023-03-25T03:11:44;95946.44;;;12.66;89.17
40502;BME280;29631;49.168;9.848;2023-03-25T03:17:25;95965.34;;;12.58;89.44
40502;BME280;29631;49.168;9.848;2023-03-25T03:20:19;95940.53;;;12.47;89.40
40502;BME280;29631;49.168;9.848;2023-03-25T03:25:33;95942.78;;;12.28;88.60
40502;BME280;29631;49.168;9.848;2023-03-25T03:28:22;95955.84;;;12.34;89.02
40502;BME280;29631;49.168;9.848;2023-03-25T03:31:22;95949.88;;;12.27;87.60
40502;BME280;29631;49.168;9.848;2023-03-25T03:34:00;95933.03;;;12.05;87.71
40502;BME280;29631;49.168;9.848;2023-03-25T03:36:38;95923.63;;;11.86;87.75
40502;BME280;29631;49.168;9.848;2023-03-25T03:39:27;95912.38;;;11.79;87.59
40502;BME280;29631;49.168;9.848;2023-03-25T03:42:03;95934.88;;;11.82;87.91
40502;BME280;29631;49.168;9.848;2023-03-25T03:44:34;95925.81;;;11.78;87.82
40502;BME280;29631;49.168;9.848;2023-03-25T03:47:08;95931.41;;;11.81;87.73
40502;BME280;29631;49.168;9.848;2023-03-25T03:49:44;95946.13;;;11.77;87.28
40502;BME280;29631;49.168;9.848;2023-03-25T03:52:18;95959.91;;;11.79;87.89
40502;BME280;29631;49.168;9.848;2023-03-25T03:55:22;95968.16;;;11.71;87.82
40502;BME280;29631;49.168;9.848;2023-03-25T03:58:01;95959.44;;;11.59;87.59
40502;BME280;29631;49.168;9.848;2023-03-25T04:00:52;95964.47;;;11.61;88.34
40502;BME280;29631;49.168;9.848;2023-03-25T04:03:33;95973.56;;;11.65;87.30
40502;BME280;29631;49.168;9.848;2023-03-25T04:06:18;95978.50;;;11.61;87.62
40502;BME280;29631;49.168;9.848;2023-03-25T04:12:02;95970.31;;;11.52;87.23
40502;BME280;29631;49.168;9.848;2023-03-25T04:14:29;95965.03;;;11.52;88.06
40502;BME280;29631;49.168;9.848;2023-03-25T04:16:55;95970.00;;;11.59;86.80
40502;BME280;29631;49.168;9.848;2023-03-25T04:19:21;95960.19;;;11.49;87.31
40502;BME280;29631;49.168;9.848;2023-03-25T04:21:46;95982.84;;;11.56;87.64
40502;BME280;29631;49.168;9.848;2023-03-25T04:24:13;95974.56;;;11.53;88.14
40502;BME280;29631;49.168;9.848;2023-03-25T04:26:41;95978.34;;;11.57;87.68
40502;BME280;29631;49.168;9.848;2023-03-25T04:29:08;95972.53;;;11.55;87.79
40502;BME280;29631;49.168;9.848;2023-03-25T04:31:34;95994.78;;;11.58;87.78
40502;BME280;29631;49.168;9.848;2023-03-25T04:34:02;95962.69;;;11.44;87.89
40502;BME280;29631;49.168;9.848;2023-03-25T04:36:29;95906.09;;;11.05;87.82
40502;BME280;29631;49.168;9.848;2023-03-25T04:39:02;95985.94;;;11.53;87.40
40502;BME280;29631;49.168;9.848;2023-03-25T04:41:28;95994.00;;;11.58;87.34
40502;BME280;29631;49.168;9.848;2023-03-25T04:43:54;96004.31;;;11.59;87.74
40502;BME280;29631;49.168;9.848;2023-03-25T04:46:20;95967.28;;;11.48;88.07
40502;BME280;29631;49.168;9.848;2023-03-25T04:48:46;95979.06;;;11.52;87.56
40502;BME280;29631;49.168;9.848;2023-03-25T04:51:13;95985.53;;;11.50;87.61
40502;BME280;29631;49.168;9.848;2023-03-25T04:53:40;95973.13;;;11.39;87.81
40502;BME280;29631;49.168;9.848;2023-03-25T04:56:15;95970.25;;;11.40;87.36
40502;BME280;29631;49.168;9.848;2023-03-25T04:58:42;95980.72;;;11.47;88.03
40502;BME280;29631;49.168;9.848;2023-03-25T05:01:27;95991.88;;;11.49;87.59
40502;BME280;29631;49.168;9.848;2023-03-25T05:03:58;95922.03;;;11.10;87.52
40502;BME280;29631;49.168;9.848;2023-03-25T05:06:37;95969.81;;;11.43;87.71
40502;BME280;29631;49.168;9.848;2023-03-25T05:09:06;95996.63;;;11.58;87.83
40502;BME280;29631;49.168;9.848;2023-03-25T05:11:35;95967.06;;;11.50;87.92
40502;BME280;29631;49.168;9.848;2023-03-25T05:14:02;95970.41;;;11.45;87.17
40502;BME280;29631;49.168;9.848;2023-03-25T05:16:28;95975.81;;;11.50;86.89
40502;BME280;29631;49.168;9.848;2023-03-25T05:18:54;95915.13;;;11.09;87.22
40502;BME280;29631;49.168;9.848;2023-03-25T05:21:20;95980.88;;;11.52;87.34
40502;BME280;29631;49.168;9.848;2023-03-25T05:23:46;95996.97;;;11.61;87.67
40502;BME280;29631;49.168;9.848;2023-03-25T05:26:12;95964.41;;;11.50;87.32
40502;BME280;29631;49.168;9.848;2023-03-25T05:28:39;95995.84;;;11.69;87.24
40502;BME280;29631;49.168;9.848;2023-03-25T05:31:05;95980.91;;;11.63;87.04
40502;BME280;29631;49.168;9.848;2023-03-25T05:33:42;95996.06;;;11.67;86.82
40502;BME280;29631;49.168;9.848;2023-03-25T05:36:14;95989.50;;;11.58;87.18
40502;BME280;29631;49.168;9.848;2023-03-25T05:38:43;95995.13;;;11.62;87.24
40502;BME280;29631;49.168;9.848;2023-03-25T05:41:11;96023.50;;;11.66;86.96
40502;BME280;29631;49.168;9.848;2023-03-25T05:43:45;96017.31;;;11.72;87.47
40502;BME280;29631;49.168;9.848;2023-03-25T05:46:13;95962.69;;;11.32;86.61
40502;BME280;29631;49.168;9.848;2023-03-25T05:48:40;95998.13;;;11.65;87.33
40502;BME280;29631;49.168;9.848;2023-03-25T05:51:15;96009.28;;;11.67;87.02
40502;BME280;29631;49.168;9.848;2023-03-25T05:53:45;96001.19;;;11.62;87.42
40502;BME280;29631;49.168;9.848;2023-03-25T05:56:19;95994.91;;;11.63;87.94
40502;BME280;29631;49.168;9.848;2023-03-25T05:58:48;95987.44;;;11.60;88.16
40502;BME280;29631;49.168;9.848;2023-03-25T06:01:14;96015.25;;;11.74;88.18
40502;BME280;29631;49.168;9.848;2023-03-25T06:03:42;95975.28;;;11.59;87.90
40502;BME280;29631;49.168;9.848;2023-03-25T06:06:10;96011.44;;;11.70;87.74
40502;BME280;29631;49.168;9.848;2023-03-25T06:08:41;95985.84;;;11.59;87.34
40502;BME280;29631;49.168;9.848;2023-03-25T06:11:10;96018.91;;;11.73;87.34
40502;BME280;29631;49.168;9.848;2023-03-25T06:13:39;95987.31;;;11.56;88.13
40502;BME280;29631;49.168;9.848;2023-03-25T06:16:06;96005.03;;;11.66;87.97
40502;BME280;29631;49.168;9.848;2023-03-25T06:18:36;95996.28;;;11.66;87.79
40502;BME280;29631;49.168;9.848;2023-03-25T06:21:03;95985.94;;;11.53;87.70
40502;BME280;29631;49.168;9.848;2023-03-25T06:23:30;96001.56;;;11.66;88.92
40502;BME280;29631;49.168;9.848;2023-03-25T06:25:59;96006.03;;;11.65;88.83
40502;BME280;29631;49.168;9.848;2023-03-25T06:28:25;96015.47;;;11.61;88.42
40502;BME280;29631;49.168;9.848;2023-03-25T06:30:51;95987.16;;;11.51;88.32
40502;BME280;29631;49.168;9.848;2023-03-25T06:33:17;95938.13;;;11.32;88.16
40502;BME280;29631;49.168;9.848;2023-03-25T06:35:46;95994.34;;;11.61;88.15
40502;BME280;29631;49.168;9.848;2023-03-25T06:38:20;96028.47;;;11.74;88.81
40502;BME280;29631;49.168;9.848;2023-03-25T06:40:47;96006.03;;;11.65;88.61
40502;BME280;29631;49.168;9.848;2023-03-25T06:43:13;96030.38;;;11.79;88.27
40502;BME280;29631;49.168;9.848;2023-03-25T06:45:39;96023.72;;;11.76;88.62
40502;BME280;29631;49.168;9.848;2023-03-25T06:48:05;96033.28;;;11.77;88.63
40502;BME280;29631;49.168;9.848;2023-03-25T06:50:31;95956.00;;;11.30;87.67
40502;BME280;29631;49.168;9.848;2023-03-25T06:52:57;96027.41;;;11.75;88.27
40502;BME280;29631;49.168;9.848;2023-03-25T06:55:23;96033.97;;;11.84;88.59
40502;BME280;29631;49.168;9.848;2023-03-25T06:57:50;96019.03;;;11.78;88.01
40502;BME280;29631;49.168;9.848;2023-03-25T07:00:18;96028.56;;;11.79;87.86
40502;BME280;29631;49.168;9.848;2023-03-25T07:02:47;96053.84;;;11.98;87.84
40502;BME280;29631;49.168;9.848;2023-03-25T07:05:13;96000.31;;;11.80;87.64
40502;BME280;29631;49.168;9.848;2023-03-25T07:07:39;96041.25;;;12.00;87.99
40502;BME280;29631;49.168;9.848;2023-03-25T07:10:05;96046.41;;;12.07;87.90
40502;BME280;29631;49.168;9.848;2023-03-25T07:12:33;96051.59;;;12.13;88.15
40502;BME280;29631;49.168;9.848;2023-03-25T07:14:59;96025.50;;;12.05;87.64
40502;BME280;29631;49.168;9.848;2023-03-25T07:17:25;96012.72;;;12.02;87.57
40502;BME280;29631;49.168;9.848;2023-03-25T07:19:51;96016.06;;;12.09;88.03
40502;BME280;29631;49.168;9.848;2023-03-25T07:22:17;96027.44;;;12.21;87.35
40502;BME280;29631;49.168;9.848;2023-03-25T07:24:43;96055.94;;;12.42;88.14
40502;BME280;29631;49.168;9.848;2023-03-25T07:27:13;96021.72;;;12.24;87.50
40502;BME280;29631;49.168;9.848;2023-03-25T07:29:39;96046.06;;;12.37;87.37
40502;BME280;29631;49.168;9.848;2023-03-25T07:32:06;96027.44;;;12.21;88.01
40502;BME280;29631;49.168;9.848;2023-03-25T07:34:32;96054.56;;;12.28;87.79
40502;BME280;29631;49.168;9.848;2023-03-25T07:36:58;96066.31;;;12.32;87.49
40502;BME280;29631;49.168;9.848;2023-03-25T07:39:24;96052.13;;;12.04;87.45
40502;BME280;29631;49.168;9.848;2023-03-25T07:41:53;96079.59;;;12.03;87.96
40502;BME280;29631;49.168;9.848;2023-03-25T07:44:19;96081.53;;;12.07;87.88
40502;BME280;29631;49.168;9.848;2023-03-25T07:46:47;96062.59;;;11.87;88.60
40502;BME280;29631;49.168;9.848;2023-03-25T07:49:15;96060.50;;;11.78;87.76
40502;BME280;29631;49.168;9.848;2023-03-25T07:51:42;96051.59;;;11.61;88.29
40502;BME280;29631;49.168;9.848;2023-03-25T07:54:08;96064.91;;;11.66;88.75
40502;BME280;29631;49.168;9.848;2023-03-25T07:56:34;96075.63;;;11.71;88.61
40502;BME280;29631;49.168;9.848;2023-03-25T07:59:00;96088.25;;;11.69;89.09
40502;BME280;29631;49.168;9.848;2023-03-25T08:01:26;96062.97;;;11.73;89.08
40502;BME280;29631;49.168;9.848;2023-03-25T08:03:52;96050.81;;;11.60;88.79
40502;BME280;29631;49.168;9.848;2023-03-25T08:06:18;96045.16;;;11.57;88.25
40502;BME280;29631;49.168;9.848;2023-03-25T08:08:44;96057.69;;;11.61;89.00
40502;BME280;29631;49.168;9.848;2023-03-25T08:11:09;96052.22;;;11.74;88.62
40502;BME280;29631;49.168;9.848;2023-03-25T08:13:35;96058.88;;;11.77;89.71
40502;BME280;29631;49.168;9.848;2023-03-25T08:16:01;96060.06;;;11.92;88.71
40502;BME280;29631;49.168;9.848;2023-03-25T08:18:27;96059.03;;;12.05;90.18
40502;BME280;29631;49.168;9.848;2023-03-25T08:20:53;96062.59;;;12.10;89.08
40502;BME280;29631;49.168;9.848;2023-03-25T08:23:19;96054.34;;;12.18;89.38
40502;BME280;29631;49.168;9.848;2023-03-25T08:25:48;96052.94;;;12.27;89.74
40502;BME280;29631;49.168;9.848;2023-03-25T08:28:19;96054.31;;;12.41;89.55
40502;BME280;29631;49.168;9.848;2023-03-25T08:30:50;96055.50;;;12.45;90.21
40502;BME280;29631;49.168;9.848;2023-03-25T08:33:20;96048.00;;;12.53;89.09
40502;BME280;29631;49.168;9.848;2023-03-25T08:35:46;96024.31;;;12.47;89.55
40502;BME280;29631;49.168;9.848;2023-03-25T08:38:12;96036.50;;;12.71;90.15
40502;BME280;29631;49.168;9.848;2023-03-25T08:40:41;96037.28;;;12.83;89.98
40502;BME280;29631;49.168;9.848;2023-03-25T08:43:08;96028.66;;;12.87;89.98
40502;BME280;29631;49.168;9.848;2023-03-25T08:45:34;96025.97;;;12.99;90.62
40502;BME280;29631;49.168;9.848;2023-03-25T08:48:01;96008.81;;;13.01;90.33
40502;BME280;29631;49.168;9.848;2023-03-25T08:50:28;96019.47;;;13.17;89.92
40502;BME280;29631;49.168;9.848;2023-03-25T08:52:56;96033.94;;;13.26;90.17
40502;BME280;29631;49.168;9.848;2023-03-25T08:55:24;96066.78;;;13.42;90.10
40502;BME280;29631;49.168;9.848;2023-03-25T08:57:50;96033.56;;;13.34;89.43
40502;BME280;29631;49.168;9.848;2023-03-25T09:00:16;96029.63;;;13.37;90.15
40502;BME280;29631;49.168;9.848;2023-03-25T09:02:43;96007.94;;;13.23;90.28
40502;BME280;29631;49.168;9.848;2023-03-25T09:05:11;96016.66;;;13.35;89.76
40502;BME280;29631;49.168;9.848;2023-03-25T09:07:38;96032.38;;;13.42;89.58
40502;BME280;29631;49.168;9.848;2023-03-25T09:10:06;96020.63;;;13.21;89.66
40502;BME280;29631;49.168;9.848;2023-03-25T09:12:32;96008.50;;;13.25;89.75
40502;BME280;29631;49.168;9.848;2023-03-25T09:14:58;96022.78;;;13.24;89.76
40502;BME280;29631;49.168;9.848;2023-03-25T09:17:24;95990.91;;;13.19;90.43
40502;BME280;29631;49.168;9.848;2023-03-25T09:19:50;96029.31;;;13.33;89.84
40502;BME280;29631;49.168;9.848;2023-03-25T09:22:16;96013.59;;;13.43;89.28
40502;BME280;29631;49.168;9.848;2023-03-25T09:24:41;95929.22;;;13.03;89.24
40502;BME280;29631;49.168;9.848;2023-03-25T09:27:07;95969.47;;;13.49;89.96
40502;BME280;29631;49.168;9.848;2023-03-25T09:29:33;95950.28;;;13.42;89.40
40502;BME280;29631;49.168;9.848;2023-03-25T09:31:59;95960.97;;;13.63;89.19
40502;BME280;29631;49.168;9.848;2023-03-25T09:34:26;95976.78;;;13.58;89.63
40502;BME280;29631;49.168;9.848;2023-03-25T09:36:53;95998.06;;;13.79;88.74
40502;BME280;29631;49.168;9.848;2023-03-25T09:39:20;95975.91;;;13.69;88.64
40502;BME280;29631;49.168;9.848;2023-03-25T09:47:23;95987.47;;;13.79;88.78
40502;BME280;29631;49.168;9.848;2023-03-25T09:49:57;95984.50;;;13.76;88.55
40502;BME280;29631;49.168;9.848;2023-03-25T09:55:28;96059.69;;;13.59;88.07
40502;BME280;29631;49.168;9.848;2023-03-25T09:58:35;96052.28;;;13.44;88.83
40502;BME280;29631;49.168;9.848;2023-03-25T10:01:21;96017.31;;;13.14;89.45
40502;BME280;29631;49.168;9.848;2023-03-25T10:06:55;96026.97;;;13.09;89.21
40502;BME280;29631;49.168;9.848;2023-03-25T10:09:42;96027.31;;;13.12;89.95
40502;BME280;29631;49.168;9.848;2023-03-25T10:16:00;96032.31;;;13.25;90.18
40502;BME280;29631;49.168;9.848;2023-03-25T10:22:02;96012.25;;;13.29;89.89
40502;BME280;29631;49.168;9.848;2023-03-25T10:27:38;96012.94;;;13.36;90.49
40502;BME280;29631;49.168;9.848;2023-03-25T10:30:17;96022.47;;;13.37;90.19
40502;BME280;29631;49.168;9.848;2023-03-25T10:33:01;96016.34;;;13.48;90.57
40502;BME280;29631;49.168;9.848;2023-03-25T10:35:45;96013.78;;;13.53;90.61
40502;BME280;29631;49.168;9.848;2023-03-25T10:38:19;96002.69;;;13.56;90.69
40502;BME280;29631;49.168;9.848;2023-03-25T10:40:50;96025.19;;;13.70;89.99
40502;BME280;29631;49.168;9.848;2023-03-25T10:43:30;96015.25;;;13.77;90.59
40502;BME280;29631;49.168;9.848;2023-03-25T10:46:30;96000.97;;;13.78;89.95
40502;BME280;29631;49.168;9.848;2023-03-25T10:48:59;96004.25;;;13.85;89.71
40502;BME280;29631;49.168;9.848;2023-03-25T10:51:32;95968.75;;;13.53;89.90
40502;BME280;29631;49.168;9.848;2023-03-25T10:53:58;96038.94;;;13.83;89.58
40502;BME280;29631;49.168;9.848;2023-03-25T10:56:38;96010.50;;;13.63;89.12
40502;BME280;29631;49.168;9.848;2023-03-25T10:59:35;96032.72;;;13.62;89.53
40502;BME280;29631;49.168;9.848;2023-03-25T11:02:27;96021.72;;;13.53;89.74
40502;BME280;29631;49.168;9.848;2023-03-25T11:05:03;96017.13;;;13.49;90.10
40502;BME280;29631;49.168;9.848;2023-03-25T11:08:01;96027.03;;;13.53;90.83
40502;BME280;29631;49.168;9.848;2023-03-25T11:10:31;96041.00;;;13.65;90.25
40502;BME280;29631;49.168;9.848;2023-03-25T11:13:00;96023.69;;;13.74;90.53
40502;BME280;29631;49.168;9.848;2023-03-25T11:15:33;96009.94;;;13.77;89.83
40502;BME280;29631;49.168;9.848;2023-03-25T11:20:36;96005.13;;;14.07;90.27
40502;BME280;29631;49.168;9.848;2023-03-25T11:26:07;96030.38;;;14.26;90.01
40502;BME280;29631;49.168;9.848;2023-03-25T11:28:49;96022.09;;;14.39;90.22
40502;BME280;29631;49.168;9.848;2023-03-25T11:33:59;96009.28;;;14.52;90.74
40502;BME280;29631;49.168;9.848;2023-03-25T11:36:30;95992.38;;;14.58;90.60
40502;BME280;29631;49.168;9.848;2023-03-25T11:39:01;95989.63;;;14.69;90.66
40502;BME280;29631;49.168;9.848;2023-03-25T11:41:34;95982.50;;;14.75;89.87
40502;BME280;29631;49.168;9.848;2023-03-25T11:44:03;95973.31;;;14.82;89.83
40502;BME280;29631;49.168;9.848;2023-03-25T11:46:30;95967.41;;;14.75;89.32
40502;BME280;29631;49.168;9.848;2023-03-25T11:49:09;95978.13;;;14.85;88.95
40502;BME280;29631;49.168;9.848;2023-03-25T11:51:36;95989.34;;;14.92;89.03
40502;BME280;29631;49.168;9.848;2023-03-25T11:54:07;95986.44;;;14.94;89.24
40502;BME280;29631;49.168;9.848;2023-03-25T11:56:40;95967.94;;;14.77;88.13
40502;BME280;29631;49.168;9.848;2023-03-25T11:59:35;95980.31;;;14.67;88.17
40502;BME280;29631;49.168;9.848;2023-03-25T12:02:22;95945.19;;;14.60;88.08
40502;BME280;29631;49.168;9.848;2023-03-25T12:07:51;95955.72;;;14.55;87.74
40502;BME280;29631;49.168;9.848;2023-03-25T12:10:59;95966.31;;;14.55;87.38
40502;BME280;29631;49.168;9.848;2023-03-25T12:25:45;95964.25;;;14.78;87.90
40502;BME280;29631;49.168;9.848;2023-03-25T12:28:44;95973.94;;;14.89;87.63
40502;BME280;29631;49.168;9.848;2023-03-25T12:34:30;95973.25;;;14.77;88.31
40502;BME280;29631;49.168;9.848;2023-03-25T12:40:06;95978.13;;;14.85;87.82
40502;BME280;29631;49.168;9.848;2023-03-25T12:42:55;95971.81;;;14.91;87.98
40502;BME280;29631;49.168;9.848;2023-03-25T12:48:53;95947.63;;;15.09;87.64
40502;BME280;29631;49.168;9.848;2023-03-25T12:57:33;95955.13;;;15.17;85.94
40502;BME280;29631;49.168;9.848;2023-03-25T13:00:12;95949.19;;;15.10;86.47
40502;BME280;29631;49.168;9.848;2023-03-25T13:08:34;95935.88;;;15.05;85.14
40502;BME280;29631;49.168;9.848;2023-03-25T13:11:17;95972.06;;;15.11;84.68
40502;BME280;29631;49.168;9.848;2023-03-25T13:13:48;95999.13;;;15.08;84.67
40502;BME280;29631;49.168;9.848;2023-03-25T13:16:19;96008.75;;;15.14;84.65
40502;BME280;29631;49.168;9.848;2023-03-25T13:19:02;95990.97;;;14.93;84.86
40502;BME280;29631;49.168;9.848;2023-03-25T13:21:35;95971.03;;;14.91;85.15
40502;BME280;29631;49.168;9.848;2023-03-25T13:24:22;95971.22;;;14.84;85.68
40502;BME280;29631;49.168;9.848;2023-03-25T13:26:51;95985.00;;;14.81;85.41
40502;BME280;29631;49.168;9.848;2023-03-25T13:29:38;95983.84;;;14.77;85.39
40502;BME280;29631;49.168;9.848;2023-03-25T13:37:57;95978.19;;;14.90;85.50
40502;BME280;29631;49.168;9.848;2023-03-25T13:43:13;95950.09;;;14.94;85.31
40502;BME280;29631;49.168;9.848;2023-03-25T13:50:48;95944.91;;;15.04;85.50
40502;BME280;29631;49.168;9.848;2023-03-25T13:53:31;95952.47;;;15.17;84.81
40502;BME280;29631;49.168;9.848;2023-03-25T14:11:42;95951.44;;;15.76;84.11
40502;BME280;29631;49.168;9.848;2023-03-25T14:14:14;95927.03;;;15.79;84.21
40502;BME280;29631;49.168;9.848;2023-03-25T14:16:46;95953.38;;;15.85;83.46
40502;BME280;29631;49.168;9.848;2023-03-25T14:19:18;95945.66;;;15.84;82.38
40502;BME280;29631;49.168;9.848;2023-03-25T14:21:50;95943.56;;;15.86;82.81
40502;BME280;29631;49.168;9.848;2023-03-25T14:24:33;95978.19;;;15.96;81.93
40502;BME280;29631;49.168;9.848;2023-03-25T14:30:04;95954.50;;;15.89;81.78
40502;BME280;29631;49.168;9.848;2023-03-25T14:32:37;95971.34;;;15.99;81.62
40502;BME280;29631;49.168;9.848;2023-03-25T14:43:37;95930.59;;;15.94;79.95
40502;BME280;29631;49.168;9.848;2023-03-25T14:49:09;95971.44;;;16.19;79.50
40502;BME280;29631;49.168;9.848;2023-03-25T14:51:45;95962.19;;;16.27;79.09
40502;BME280;29631;49.168;9.848;2023-03-25T14:59:40;95944.47;;;16.37;78.49
40502;BME280;29631;49.168;9.848;2023-03-25T15:02:24;95959.97;;;16.50;78.36
40502;BME280;29631;49.168;9.848;2023-03-25T15:04:55;95961.06;;;16.59;77.99
40502;BME280;29631;49.168;9.848;2023-03-25T15:07:58;95954.41;;;16.57;77.82
40502;BME280;29631;49.168;9.848;2023-03-25T15:10:34;95971.25;;;16.72;77.66
40502;BME280;29631;49.168;9.848;2023-03-25T15:13:08;95962.47;;;16.67;78.10
40502;BME280;29631;49.168;9.848;2023-03-25T15:21:14;95972.81;;;16.63;77.69
40502;BME280;29631;49.168;9.848;2023-03-25T15:23:50;95960.56;;;16.62;77.54
40502;BME280;29631;49.168;9.848;2023-03-25T15:26:31;95957.94;;;16.67;76.54
40502;BME280;29631;49.168;9.848;2023-03-25T15:32:33;95971.78;;;16.69;76.88
40502;BME280;29631;49.168;9.848;2023-03-25T15:35:42;95969.34;;;16.63;77.08
40502;BME280;29631;49.168;9.848;2023-03-25T15:38:39;95961.13;;;16.69;76.81
40502;BME280;29631;49.168;9.848;2023-03-25T15:47:36;95971.31;;;16.82;76.39
40502;BME280;29631;49.168;9.848;2023-03-25T15:56:05;95963.50;;;16.66;75.51
40502;BME280;29631;49.168;9.848;2023-03-25T15:58:57;95970.75;;;16.80;75.58
40502;BME280;29631;49.168;9.848;2023-03-25T16:01:29;95961.72;;;16.76;75.83
40502;BME280;29631;49.168;9.848;2023-03-25T16:04:15;95963.03;;;16.78;74.79
40502;BME280;29631;49.168;9.848;2023-03-25T16:06:49;95964.09;;;16.77;75.74
40502;BME280;29631;49.168;9.848;2023-03-25T16:09:21;95969.66;;;16.71;74.63
40502;BME280;29631;49.168;9.848;2023-03-25T16:11:49;95948.81;;;16.58;75.34